sensor_id;sensor_type;location;lat;lon;timestamp;temperature;humidity
32811;DHT22;65470;47.324;8.548;2023-04-15T00:01:06;7.00;99.90
32811;DHT22;65470;47.324;8.548;2023-04-15T00:03:32;7.00;99.90
32811;DHT22;65470;47.324;8.548;2023-04-15T00:05:58;7.00;99.90
32811;DHT22;65470;47.324;8.548;2023-04-15T00:08:24;7.00;99.90
32811;DHT22;65470;47.324;8.548;2023-04-15T00:10:50;7.00;99.90
32811;DHT22;65470;47.324;8.548;2023-04-15T00:13:15;7.00;99.90
32811;DHT22;65470;47.324;8.548;2023-04-15T00:15:41;7.00;99.90
32811;DHT22;65470;47.324;8.548;2023-04-15T00:18:07;7.00;99.90
32811;DHT22;65470;47.324;8.548;2023-04-15T00:20:34;6.90;99.90
32811;DHT22;65470;47.324;8.548;2023-04-15T00:23:01;6.90;99.90
32811;DHT22;65470;47.324;8.548;2023-04-15T00:25:27;7.00;99.90
32811;DHT22;65470;47.324;8.548;2023-04-15T00:27:52;7.00;99.90
32811;DHT22;65470;47.324;8.548;2023-04-15T00:30:18;7.10;99.90
32811;DHT22;65470;47.324;8.548;2023-04-15T00:32:44;7.10;99.90
32811;DHT22;65470;47.324;8.548;2023-04-15T00:35:11;7.20;99.90
32811;DHT22;65470;47.324;8.548;2023-04-15T00:37:36;7.20;99.90
32811;DHT22;65470;47.324;8.548;2023-04-15T00:40:02;7.20;99.90
32811;DHT22;65470;47.324;8.548;2023-04-15T00:42:30;7.30;99.90
32811;DHT22;65470;47.324;8.548;2023-04-15T00:44:56;7.30;99.90
32811;DHT22;65470;47.324;8.548;2023-04-15T00:47:22;7.40;99.90
32811;DHT22;65470;47.324;8.548;2023-04-15T00:49:47;7.50;99.90
32811;DHT22;65470;47.324;8.548;2023-04-15T00:52:13;7.50;99.90
32811;DHT22;65470;47.324;8.548;2023-04-15T00:54:39;7.60;99.90
32811;DHT22;65470;47.324;8.548;2023-04-15T00:57:05;7.60;99.90
32811;DHT22;65470;47.324;8.548;2023-04-15T00:59:32;7.60;99.90
32811;DHT22;65470;47.324;8.548;2023-04-15T01:01:58;7.70;99.90
32811;DHT22;65470;47.324;8.548;2023-04-15T01:04:24;7.80;99.90
32811;DHT22;65470;47.324;8.548;2023-04-15T01:06:50;7.80;99.90
32811;DHT22;65470;47.324;8.548;2023-04-15T01:09:16;7.80;99.90
32811;DHT22;65470;47.324;8.548;2023-04-15T01:11:41;7.80;99.90
32811;DHT22;65470;47.324;8.548;2023-04-15T01:14:08;7.80;99.90
32811;DHT22;65470;47.324;8.548;2023-04-15T01:16:35;7.90;99.90
32811;DHT22;65470;47.324;8.548;2023-04-15T01:19:07;7.90;99.90
32811;DHT22;65470;47.324;8.548;2023-04-15T01:21:38;8.00;99.90
32811;DHT22;65470;47.324;8.548;2023-04-15T01:24:08;8.00;99.90
32811;DHT22;65470;47.324;8.548;2023-04-15T01:26:37;8.10;99.90
32811;DHT22;65470;47.324;8.548;2023-04-15T01:29:02;8.10;99.90
32811;DHT22;65470;47.324;8.548;2023-04-15T01:31:28;8.10;99.90
32811;DHT22;65470;47.324;8.548;2023-04-15T01:33:54;8.20;99.90
32811;DHT22;65470;47.324;8.548;2023-04-15T01:36:19;8.20;99.90
32811;DHT22;65470;47.324;8.548;2023-04-15T01:38:45;8.20;99.90
32811;DHT22;65470;47.324;8.548;2023-04-15T01:41:12;8.20;99.90
32811;DHT22;65470;47.324;8.548;2023-04-15T01:43:38;8.20;99.90
32811;DHT22;65470;47.324;8.548;2023-04-15T01:46:04;8.10;99.90
32811;DHT22;65470;47.324;8.548;2023-04-15T01:48:30;8.20;99.90
32811;DHT22;65470;47.324;8.548;2023-04-15T01:50:57;8.20;99.90
32811;DHT22;65470;47.324;8.548;2023-04-15T01:53:24;8.20;99.90
32811;DHT22;65470;47.324;8.548;2023-04-15T01:55:50;8.20;99.90
32811;DHT22;65470;47.324;8.548;2023-04-15T01:58:17;8.40;99.90
32811;DHT22;65470;47.324;8.548;2023-04-15T02:04:04;8.40;99.90
32811;DHT22;65470;47.324;8.548;2023-04-15T02:06:30;8.40;99.90
32811;DHT22;65470;47.324;8.548;2023-04-15T02:08:56;8.40;99.90
32811;DHT22;65470;47.324;8.548;2023-04-15T02:11:21;8.40;99.90
32811;DHT22;65470;47.324;8.548;2023-04-15T02:13:47;8.40;99.90
32811;DHT22;65470;47.324;8.548;2023-04-15T02:16:19;8.40;99.90
32811;DHT22;65470;47.324;8.548;2023-04-15T02:18:45;8.40;99.90
32811;DHT22;65470;47.324;8.548;2023-04-15T02:21:11;8.40;99.90
32811;DHT22;65470;47.324;8.548;2023-04-15T02:23:37;8.40;99.90
32811;DHT22;65470;47.324;8.548;2023-04-15T02:26:03;8.30;99.90
32811;DHT22;65470;47.324;8.548;2023-04-15T02:28:28;8.30;99.90
32811;DHT22;65470;47.324;8.548;2023-04-15T02:30:54;8.30;99.90
32811;DHT22;65470;47.324;8.548;2023-04-15T02:33:22;8.30;99.90
32811;DHT22;65470;47.324;8.548;2023-04-15T02:35:47;8.30;99.90
32811;DHT22;65470;47.324;8.548;2023-04-15T02:38:13;8.30;99.90
32811;DHT22;65470;47.324;8.548;2023-04-15T02:40:41;8.40;99.90
32811;DHT22;65470;47.324;8.548;2023-04-15T02:43:06;8.30;99.90
32811;DHT22;65470;47.324;8.548;2023-04-15T02:45:32;8.30;99.90
32811;DHT22;65470;47.324;8.548;2023-04-15T02:47:58;8.30;99.90
32811;DHT22;65470;47.324;8.548;2023-04-15T02:50:23;8.40;99.90
32811;DHT22;65470;47.324;8.548;2023-04-15T02:52:50;8.40;99.90
32811;DHT22;65470;47.324;8.548;2023-04-15T02:55:16;8.40;99.90
32811;DHT22;65470;47.324;8.548;2023-04-15T02:57:42;8.50;99.90
32811;DHT22;65470;47.324;8.548;2023-04-15T03:00:09;8.40;99.90
32811;DHT22;65470;47.324;8.548;2023-04-15T03:02:39;8.40;99.90
32811;DHT22;65470;47.324;8.548;2023-04-15T03:05:10;8.40;99.90
32811;DHT22;65470;47.324;8.548;2023-04-15T03:07:36;8.40;99.90
32811;DHT22;65470;47.324;8.548;2023-04-15T03:10:01;8.40;99.90
32811;DHT22;65470;47.324;8.548;2023-04-15T03:12:27;8.40;99.90
32811;DHT22;65470;47.324;8.548;2023-04-15T03:14:54;8.40;99.90
32811;DHT22;65470;47.324;8.548;2023-04-15T03:17:20;8.40;99.90
32811;DHT22;65470;47.324;8.548;2023-04-15T03:19:46;8.40;99.90
32811;DHT22;65470;47.324;8.548;2023-04-15T03:22:11;8.40;99.90
32811;DHT22;65470;47.324;8.548;2023-04-15T03:24:37;8.40;99.90
32811;DHT22;65470;47.324;8.548;2023-04-15T03:27:02;8.40;99.90
32811;DHT22;65470;47.324;8.548;2023-04-15T03:29:30;8.40;99.90
32811;DHT22;65470;47.324;8.548;2023-04-15T03:31:56;8.40;99.90
32811;DHT22;65470;47.324;8.548;2023-04-15T03:34:21;8.40;99.90
32811;DHT22;65470;47.324;8.548;2023-04-15T03:36:47;8.40;99.90
32811;DHT22;65470;47.324;8.548;2023-04-15T03:39:13;8.40;99.90
32811;DHT22;65470;47.324;8.548;2023-04-15T03:41:38;8.40;99.90
32811;DHT22;65470;47.324;8.548;2023-04-15T03:44:04;8.40;99.90
32811;DHT22;65470;47.324;8.548;2023-04-15T03:46:30;8.40;99.90
32811;DHT22;65470;47.324;8.548;2023-04-15T03:48:55;8.40;99.90
32811;DHT22;65470;47.324;8.548;2023-04-15T03:51:21;8.40;99.90
32811;DHT22;65470;47.324;8.548;2023-04-15T03:53:46;8.40;99.90
32811;DHT22;65470;47.324;8.548;2023-04-15T03:56:12;8.40;99.90
32811;DHT22;65470;47.324;8.548;2023-04-15T03:58:38;8.30;99.90
32811;DHT22;65470;47.324;8.548;2023-04-15T04:01:03;8.20;99.90
32811;DHT22;65470;47.324;8.548;2023-04-15T04:03:29;8.20;99.90
32811;DHT22;65470;47.324;8.548;2023-04-15T04:05:55;8.20;99.90
32811;DHT22;65470;47.324;8.548;2023-04-15T04:08:21;8.20;99.90
32811;DHT22;65470;47.324;8.548;2023-04-15T04:10:46;8.20;99.90
32811;DHT22;65470;47.324;8.548;2023-04-15T04:13:12;8.20;99.90
32811;DHT22;65470;47.324;8.548;2023-04-15T04:15:37;8.20;99.90
32811;DHT22;65470;47.324;8.548;2023-04-15T04:18:03;8.20;99.90
32811;DHT22;65470;47.324;8.548;2023-04-15T04:20:29;8.30;99.90
32811;DHT22;65470;47.324;8.548;2023-04-15T04:22:56;8.20;99.90
32811;DHT22;65470;47.324;8.548;2023-04-15T04:25:22;8.20;99.90
32811;DHT22;65470;47.324;8.548;2023-04-15T04:27:49;8.20;99.90
32811;DHT22;65470;47.324;8.548;2023-04-15T04:30:14;8.20;99.90
32811;DHT22;65470;47.324;8.548;2023-04-15T04:32:40;8.20;99.90
32811;DHT22;65470;47.324;8.548;2023-04-15T04:35:06;8.20;99.90
32811;DHT22;65470;47.324;8.548;2023-04-15T04:37:32;8.20;99.90
32811;DHT22;65470;47.324;8.548;2023-04-15T04:39:58;8.20;99.90
32811;DHT22;65470;47.324;8.548;2023-04-15T04:42:23;8.20;99.90
32811;DHT22;65470;47.324;8.548;2023-04-15T04:44:49;8.20;99.90
32811;DHT22;65470;47.324;8.548;2023-04-15T04:47:14;8.20;99.90
32811;DHT22;65470;47.324;8.548;2023-04-15T04:49:40;8.20;99.90
32811;DHT22;65470;47.324;8.548;2023-04-15T04:52:06;8.20;99.90
32811;DHT22;65470;47.324;8.548;2023-04-15T04:54:32;8.20;99.90
32811;DHT22;65470;47.324;8.548;2023-04-15T04:56:58;8.30;99.90
32811;DHT22;65470;47.324;8.548;2023-04-15T04:59:23;8.30;99.90
32811;DHT22;65470;47.324;8.548;2023-04-15T05:01:49;8.30;99.90
32811;DHT22;65470;47.324;8.548;2023-04-15T05:04:15;8.20;99.90
32811;DHT22;65470;47.324;8.548;2023-04-15T05:06:41;8.30;99.90
32811;DHT22;65470;47.324;8.548;2023-04-15T05:09:06;8.30;99.90
32811;DHT22;65470;47.324;8.548;2023-04-15T05:11:32;8.40;99.90
32811;DHT22;65470;47.324;8.548;2023-04-15T05:13:57;8.40;99.90
32811;DHT22;65470;47.324;8.548;2023-04-15T05:16:25;8.30;99.90
32811;DHT22;65470;47.324;8.548;2023-04-15T05:18:51;8.40;99.90
32811;DHT22;65470;47.324;8.548;2023-04-15T05:21:17;8.40;99.90
32811;DHT22;65470;47.324;8.548;2023-04-15T05:23:43;8.50;99.90
32811;DHT22;65470;47.324;8.548;2023-04-15T05:26:08;8.50;99.90
32811;DHT22;65470;47.324;8.548;2023-04-15T05:28:34;8.60;99.90
32811;DHT22;65470;47.324;8.548;2023-04-15T05:31:00;8.70;99.90
32811;DHT22;65470;47.324;8.548;2023-04-15T05:33:26;8.70;99.90
32811;DHT22;65470;47.324;8.548;2023-04-15T05:35:51;8.70;99.90
32811;DHT22;65470;47.324;8.548;2023-04-15T05:38:17;8.80;99.90
32811;DHT22;65470;47.324;8.548;2023-04-15T05:40:43;8.80;99.90
32811;DHT22;65470;47.324;8.548;2023-04-15T05:43:08;8.90;99.90
32811;DHT22;65470;47.324;8.548;2023-04-15T05:45:34;8.90;99.90
32811;DHT22;65470;47.324;8.548;2023-04-15T05:48:00;9.00;99.90
32811;DHT22;65470;47.324;8.548;2023-04-15T05:50:26;9.00;99.90
32811;DHT22;65470;47.324;8.548;2023-04-15T05:52:51;9.10;99.90
32811;DHT22;65470;47.324;8.548;2023-04-15T05:55:17;9.20;99.90
32811;DHT22;65470;47.324;8.548;2023-04-15T05:57:42;9.10;99.90
32811;DHT22;65470;47.324;8.548;2023-04-15T06:00:08;9.30;99.90
32811;DHT22;65470;47.324;8.548;2023-04-15T06:02:34;9.20;99.90
32811;DHT22;65470;47.324;8.548;2023-04-15T06:05:00;9.30;99.90
32811;DHT22;65470;47.324;8.548;2023-04-15T06:07:26;9.40;99.90
32811;DHT22;65470;47.324;8.548;2023-04-15T06:09:52;9.50;99.90
32811;DHT22;65470;47.324;8.548;2023-04-15T06:12:17;9.60;99.90
32811;DHT22;65470;47.324;8.548;2023-04-15T06:14:43;9.80;99.90
32811;DHT22;65470;47.324;8.548;2023-04-15T06:17:08;9.90;99.90
32811;DHT22;65470;47.324;8.548;2023-04-15T06:19:34;10.10;99.90
32811;DHT22;65470;47.324;8.548;2023-04-15T06:22:01;10.20;99.90
32811;DHT22;65470;47.324;8.548;2023-04-15T06:24:27;10.50;99.90
32811;DHT22;65470;47.324;8.548;2023-04-15T06:26:53;11.10;99.90
32811;DHT22;65470;47.324;8.548;2023-04-15T06:29:19;11.50;99.90
32811;DHT22;65470;47.324;8.548;2023-04-15T06:31:46;11.70;99.90
32811;DHT22;65470;47.324;8.548;2023-04-15T06:34:12;11.70;99.90
32811;DHT22;65470;47.324;8.548;2023-04-15T06:36:38;11.70;99.90
32811;DHT22;65470;47.324;8.548;2023-04-15T06:39:03;11.30;99.90
32811;DHT22;65470;47.324;8.548;2023-04-15T06:41:29;11.20;99.90
32811;DHT22;65470;47.324;8.548;2023-04-15T06:43:54;11.10;99.90
32811;DHT22;65470;47.324;8.548;2023-04-15T06:46:20;10.90;99.90
32811;DHT22;65470;47.324;8.548;2023-04-15T06:48:46;10.80;99.90
32811;DHT22;65470;47.324;8.548;2023-04-15T06:51:12;10.80;99.90
32811;DHT22;65470;47.324;8.548;2023-04-15T06:53:37;10.40;99.90
32811;DHT22;65470;47.324;8.548;2023-04-15T06:56:07;10.40;99.90
32811;DHT22;65470;47.324;8.548;2023-04-15T06:58:33;10.40;99.90
32811;DHT22;65470;47.324;8.548;2023-04-15T07:00:58;10.40;99.90
32811;DHT22;65470;47.324;8.548;2023-04-15T07:03:24;10.60;99.90
32811;DHT22;65470;47.324;8.548;2023-04-15T07:05:49;10.80;99.90
32811;DHT22;65470;47.324;8.548;2023-04-15T07:08:15;10.80;99.90
32811;DHT22;65470;47.324;8.548;2023-04-15T07:10:40;10.80;99.90
32811;DHT22;65470;47.324;8.548;2023-04-15T07:13:06;11.00;99.90
32811;DHT22;65470;47.324;8.548;2023-04-15T07:15:33;11.20;99.90
32811;DHT22;65470;47.324;8.548;2023-04-15T07:17:58;11.60;99.60
32811;DHT22;65470;47.324;8.548;2023-04-15T07:20:24;11.70;98.10
32811;DHT22;65470;47.324;8.548;2023-04-15T07:22:50;11.50;98.20
32811;DHT22;65470;47.324;8.548;2023-04-15T07:25:16;11.70;98.70
32811;DHT22;65470;47.324;8.548;2023-04-15T07:27:42;11.90;99.00
32811;DHT22;65470;47.324;8.548;2023-04-15T07:30:08;12.10;99.70
32811;DHT22;65470;47.324;8.548;2023-04-15T07:32:34;12.50;98.90
32811;DHT22;65470;47.324;8.548;2023-04-15T07:35:00;12.70;95.40
32811;DHT22;65470;47.324;8.548;2023-04-15T07:37:26;13.00;94.10
32811;DHT22;65470;47.324;8.548;2023-04-15T07:39:52;13.00;94.60
32811;DHT22;65470;47.324;8.548;2023-04-15T07:42:18;13.20;91.80
32811;DHT22;65470;47.324;8.548;2023-04-15T07:44:44;13.20;91.20
32811;DHT22;65470;47.324;8.548;2023-04-15T07:47:10;12.90;91.10
32811;DHT22;65470;47.324;8.548;2023-04-15T07:49:36;13.00;91.20
32811;DHT22;65470;47.324;8.548;2023-04-15T07:52:02;13.10;90.00
32811;DHT22;65470;47.324;8.548;2023-04-15T07:54:28;13.10;90.60
32811;DHT22;65470;47.324;8.548;2023-04-15T07:56:53;13.30;89.40
32811;DHT22;65470;47.324;8.548;2023-04-15T07:59:20;13.40;90.20
32811;DHT22;65470;47.324;8.548;2023-04-15T08:01:46;13.30;90.00
32811;DHT22;65470;47.324;8.548;2023-04-15T08:04:11;13.30;90.80
32811;DHT22;65470;47.324;8.548;2023-04-15T08:06:37;13.40;90.00
32811;DHT22;65470;47.324;8.548;2023-04-15T08:09:04;13.50;88.70
32811;DHT22;65470;47.324;8.548;2023-04-15T08:11:30;13.60;89.00
32811;DHT22;65470;47.324;8.548;2023-04-15T08:13:56;13.60;87.60
32811;DHT22;65470;47.324;8.548;2023-04-15T08:16:23;13.50;86.20
32811;DHT22;65470;47.324;8.548;2023-04-15T08:18:51;13.80;87.60
32811;DHT22;65470;47.324;8.548;2023-04-15T08:21:18;14.00;87.90
32811;DHT22;65470;47.324;8.548;2023-04-15T08:23:45;14.50;87.60
32811;DHT22;65470;47.324;8.548;2023-04-15T08:26:11;14.90;85.50
32811;DHT22;65470;47.324;8.548;2023-04-15T08:28:39;15.30;84.10
32811;DHT22;65470;47.324;8.548;2023-04-15T08:31:05;15.50;81.20
32811;DHT22;65470;47.324;8.548;2023-04-15T08:33:31;15.60;80.40
32811;DHT22;65470;47.324;8.548;2023-04-15T08:35:57;15.50;79.40
32811;DHT22;65470;47.324;8.548;2023-04-15T08:38:23;15.40;79.50
32811;DHT22;65470;47.324;8.548;2023-04-15T08:40:49;15.20;79.50
32811;DHT22;65470;47.324;8.548;2023-04-15T08:43:23;15.00;80.30
32811;DHT22;65470;47.324;8.548;2023-04-15T08:45:51;14.80;79.90
32811;DHT22;65470;47.324;8.548;2023-04-15T08:48:18;14.60;81.00
32811;DHT22;65470;47.324;8.548;2023-04-15T08:50:44;14.40;82.20
32811;DHT22;65470;47.324;8.548;2023-04-15T08:53:11;14.30;84.40
32811;DHT22;65470;47.324;8.548;2023-04-15T08:55:44;14.10;84.60
32811;DHT22;65470;47.324;8.548;2023-04-15T08:58:11;14.10;85.20
32811;DHT22;65470;47.324;8.548;2023-04-15T09:00:38;14.10;85.70
32811;DHT22;65470;47.324;8.548;2023-04-15T09:03:07;14.20;87.20
32811;DHT22;65470;47.324;8.548;2023-04-15T09:05:34;14.00;89.30
32811;DHT22;65470;47.324;8.548;2023-04-15T09:08:00;14.10;89.90
32811;DHT22;65470;47.324;8.548;2023-04-15T09:10:27;14.20;89.80
32811;DHT22;65470;47.324;8.548;2023-04-15T09:12:53;14.40;90.00
32811;DHT22;65470;47.324;8.548;2023-04-15T09:15:19;14.50;89.40
32811;DHT22;65470;47.324;8.548;2023-04-15T09:17:45;14.70;88.40
32811;DHT22;65470;47.324;8.548;2023-04-15T09:20:15;14.70;88.40
32811;DHT22;65470;47.324;8.548;2023-04-15T09:22:45;14.70;91.10
32811;DHT22;65470;47.324;8.548;2023-04-15T09:28:00;14.70;94.20
32811;DHT22;65470;47.324;8.548;2023-04-15T09:30:29;14.60;91.00
32811;DHT22;65470;47.324;8.548;2023-04-15T09:32:56;14.60;90.60
32811;DHT22;65470;47.324;8.548;2023-04-15T09:35:24;14.60;90.60
32811;DHT22;65470;47.324;8.548;2023-04-15T09:37:50;14.60;86.40
32811;DHT22;65470;47.324;8.548;2023-04-15T09:40:39;14.40;88.00
32811;DHT22;65470;47.324;8.548;2023-04-15T09:43:07;14.30;92.00
32811;DHT22;65470;47.324;8.548;2023-04-15T09:45:34;14.10;91.20
32811;DHT22;65470;47.324;8.548;2023-04-15T09:48:24;14.10;90.30
32811;DHT22;65470;47.324;8.548;2023-04-15T09:50:51;14.10;90.10
32811;DHT22;65470;47.324;8.548;2023-04-15T09:53:23;14.00;91.80
32811;DHT22;65470;47.324;8.548;2023-04-15T09:55:56;14.20;90.50
32811;DHT22;65470;47.324;8.548;2023-04-15T09:58:24;14.40;91.10
32811;DHT22;65470;47.324;8.548;2023-04-15T10:00:51;14.50;91.30
32811;DHT22;65470;47.324;8.548;2023-04-15T10:05:52;14.40;93.20
32811;DHT22;65470;47.324;8.548;2023-04-15T10:08:19;14.30;94.30
32811;DHT22;65470;47.324;8.548;2023-04-15T10:10:47;14.00;94.20
32811;DHT22;65470;47.324;8.548;2023-04-15T10:13:17;13.80;97.30
32811;DHT22;65470;47.324;8.548;2023-04-15T10:15:44;13.80;96.80
32811;DHT22;65470;47.324;8.548;2023-04-15T10:18:15;13.80;97.10
32811;DHT22;65470;47.324;8.548;2023-04-15T10:20:43;13.70;97.80
32811;DHT22;65470;47.324;8.548;2023-04-15T10:23:10;13.60;98.80
32811;DHT22;65470;47.324;8.548;2023-04-15T10:25:37;13.60;99.90
32811;DHT22;65470;47.324;8.548;2023-04-15T10:28:05;13.70;99.90
32811;DHT22;65470;47.324;8.548;2023-04-15T10:30:32;13.70;99.90
32811;DHT22;65470;47.324;8.548;2023-04-15T10:32:59;13.50;99.90
32811;DHT22;65470;47.324;8.548;2023-04-15T10:35:27;13.10;99.90
32811;DHT22;65470;47.324;8.548;2023-04-15T10:37:53;13.00;99.90
32811;DHT22;65470;47.324;8.548;2023-04-15T10:40:32;13.20;99.90
32811;DHT22;65470;47.324;8.548;2023-04-15T10:43:01;13.20;99.90
32811;DHT22;65470;47.324;8.548;2023-04-15T10:45:31;13.30;99.90
32811;DHT22;65470;47.324;8.548;2023-04-15T10:48:01;13.40;99.10
32811;DHT22;65470;47.324;8.548;2023-04-15T10:50:27;13.50;99.90
32811;DHT22;65470;47.324;8.548;2023-04-15T10:52:54;13.60;97.70
32811;DHT22;65470;47.324;8.548;2023-04-15T10:55:21;13.50;97.80
32811;DHT22;65470;47.324;8.548;2023-04-15T10:57:54;13.50;97.90
32811;DHT22;65470;47.324;8.548;2023-04-15T11:00:28;13.40;97.30
32811;DHT22;65470;47.324;8.548;2023-04-15T11:02:54;13.10;99.60
32811;DHT22;65470;47.324;8.548;2023-04-15T11:08:06;13.00;99.90
32811;DHT22;65470;47.324;8.548;2023-04-15T11:13:01;12.70;99.90
32811;DHT22;65470;47.324;8.548;2023-04-15T11:15:30;12.80;99.90
32811;DHT22;65470;47.324;8.548;2023-04-15T11:17:58;13.00;99.90
32811;DHT22;65470;47.324;8.548;2023-04-15T11:20:24;13.30;99.90
32811;DHT22;65470;47.324;8.548;2023-04-15T11:22:52;13.60;97.60
32811;DHT22;65470;47.324;8.548;2023-04-15T11:25:24;13.70;95.80
32811;DHT22;65470;47.324;8.548;2023-04-15T11:27:54;13.60;95.20
32811;DHT22;65470;47.324;8.548;2023-04-15T11:30:22;13.40;95.10
32811;DHT22;65470;47.324;8.548;2023-04-15T11:32:48;13.60;96.80
32811;DHT22;65470;47.324;8.548;2023-04-15T11:35:16;13.70;95.50
32811;DHT22;65470;47.324;8.548;2023-04-15T11:37:42;13.90;95.40
32811;DHT22;65470;47.324;8.548;2023-04-15T11:40:08;14.30;95.20
32811;DHT22;65470;47.324;8.548;2023-04-15T11:42:34;14.20;92.50
32811;DHT22;65470;47.324;8.548;2023-04-15T11:45:11;14.10;93.10
32811;DHT22;65470;47.324;8.548;2023-04-15T11:47:38;14.10;92.90
32811;DHT22;65470;47.324;8.548;2023-04-15T11:50:20;14.10;93.40
32811;DHT22;65470;47.324;8.548;2023-04-15T11:55:18;14.40;93.30
32811;DHT22;65470;47.324;8.548;2023-04-15T11:57:44;14.50;95.30
32811;DHT22;65470;47.324;8.548;2023-04-15T12:00:10;14.50;93.20
32811;DHT22;65470;47.324;8.548;2023-04-15T12:02:36;14.70;93.70
32811;DHT22;65470;47.324;8.548;2023-04-15T12:05:05;15.00;92.70
32811;DHT22;65470;47.324;8.548;2023-04-15T12:07:31;14.90;91.70
32811;DHT22;65470;47.324;8.548;2023-04-15T12:09:57;14.90;92.90
32811;DHT22;65470;47.324;8.548;2023-04-15T12:12:29;14.90;91.80
32811;DHT22;65470;47.324;8.548;2023-04-15T12:14:58;14.90;91.30
32811;DHT22;65470;47.324;8.548;2023-04-15T12:17:24;14.80;93.40
32811;DHT22;65470;47.324;8.548;2023-04-15T12:19:55;14.80;92.90
32811;DHT22;65470;47.324;8.548;2023-04-15T12:22:20;15.00;93.50
32811;DHT22;65470;47.324;8.548;2023-04-15T12:24:46;14.90;93.50
32811;DHT22;65470;47.324;8.548;2023-04-15T12:27:13;14.80;91.90
32811;DHT22;65470;47.324;8.548;2023-04-15T12:29:40;14.60;91.00
32811;DHT22;65470;47.324;8.548;2023-04-15T12:32:11;14.50;91.50
32811;DHT22;65470;47.324;8.548;2023-04-15T12:34:38;14.10;91.80
32811;DHT22;65470;47.324;8.548;2023-04-15T12:37:05;14.10;92.90
32811;DHT22;65470;47.324;8.548;2023-04-15T12:39:35;14.20;92.70
32811;DHT22;65470;47.324;8.548;2023-04-15T12:42:02;14.10;93.60
32811;DHT22;65470;47.324;8.548;2023-04-15T12:44:28;14.30;94.70
32811;DHT22;65470;47.324;8.548;2023-04-15T12:46:54;14.70;91.70
32811;DHT22;65470;47.324;8.548;2023-04-15T12:49:21;14.60;90.80
32811;DHT22;65470;47.324;8.548;2023-04-15T12:51:52;14.50;92.00
32811;DHT22;65470;47.324;8.548;2023-04-15T12:54:18;14.30;92.90
32811;DHT22;65470;47.324;8.548;2023-04-15T12:56:46;14.10;93.20
32811;DHT22;65470;47.324;8.548;2023-04-15T12:59:13;14.00;92.90
32811;DHT22;65470;47.324;8.548;2023-04-15T13:01:38;14.30;93.30
32811;DHT22;65470;47.324;8.548;2023-04-15T13:04:05;14.40;92.70
32811;DHT22;65470;47.324;8.548;2023-04-15T13:06:31;14.30;92.20
32811;DHT22;65470;47.324;8.548;2023-04-15T13:08:58;14.30;91.40
32811;DHT22;65470;47.324;8.548;2023-04-15T13:11:26;14.60;91.10
32811;DHT22;65470;47.324;8.548;2023-04-15T13:13:51;15.00;91.40
32811;DHT22;65470;47.324;8.548;2023-04-15T13:16:17;15.40;91.50
32811;DHT22;65470;47.324;8.548;2023-04-15T13:18:43;15.30;91.50
32811;DHT22;65470;47.324;8.548;2023-04-15T13:21:12;15.30;91.50
32811;DHT22;65470;47.324;8.548;2023-04-15T13:23:38;14.90;91.80
32811;DHT22;65470;47.324;8.548;2023-04-15T13:26:03;14.90;92.90
32811;DHT22;65470;47.324;8.548;2023-04-15T13:28:29;15.00;92.60
32811;DHT22;65470;47.324;8.548;2023-04-15T13:30:55;14.80;92.70
32811;DHT22;65470;47.324;8.548;2023-04-15T13:33:21;14.80;93.30
32811;DHT22;65470;47.324;8.548;2023-04-15T13:35:46;14.70;94.10
32811;DHT22;65470;47.324;8.548;2023-04-15T13:38:12;14.70;94.20
32811;DHT22;65470;47.324;8.548;2023-04-15T13:40:38;14.60;94.80
32811;DHT22;65470;47.324;8.548;2023-04-15T13:43:03;14.30;95.40
32811;DHT22;65470;47.324;8.548;2023-04-15T13:45:30;14.20;96.40
32811;DHT22;65470;47.324;8.548;2023-04-15T13:47:56;14.30;95.90
32811;DHT22;65470;47.324;8.548;2023-04-15T13:50:22;14.30;96.20
32811;DHT22;65470;47.324;8.548;2023-04-15T13:52:47;14.10;95.60
32811;DHT22;65470;47.324;8.548;2023-04-15T13:55:13;14.30;96.20
32811;DHT22;65470;47.324;8.548;2023-04-15T13:57:39;14.10;95.60
32811;DHT22;65470;47.324;8.548;2023-04-15T14:00:05;13.80;96.90
32811;DHT22;65470;47.324;8.548;2023-04-15T14:02:31;13.90;97.30
32811;DHT22;65470;47.324;8.548;2023-04-15T14:04:56;13.80;97.50
32811;DHT22;65470;47.324;8.548;2023-04-15T14:07:22;13.50;98.00
32811;DHT22;65470;47.324;8.548;2023-04-15T14:09:48;13.10;98.40
32811;DHT22;65470;47.324;8.548;2023-04-15T14:12:14;13.00;99.10
32811;DHT22;65470;47.324;8.548;2023-04-15T14:14:39;13.00;99.60
32811;DHT22;65470;47.324;8.548;2023-04-15T14:17:05;13.10;99.70
32811;DHT22;65470;47.324;8.548;2023-04-15T14:19:32;13.30;99.10
32811;DHT22;65470;47.324;8.548;2023-04-15T14:21:57;13.50;98.20
32811;DHT22;65470;47.324;8.548;2023-04-15T14:24:24;13.20;98.20
32811;DHT22;65470;47.324;8.548;2023-04-15T14:26:49;13.30;98.70
32811;DHT22;65470;47.324;8.548;2023-04-15T14:29:15;13.20;98.70
32811;DHT22;65470;47.324;8.548;2023-04-15T14:31:41;13.10;98.90
32811;DHT22;65470;47.324;8.548;2023-04-15T14:34:09;13.20;99.00
32811;DHT22;65470;47.324;8.548;2023-04-15T14:36:35;13.40;98.90
32811;DHT22;65470;47.324;8.548;2023-04-15T14:39:00;13.60;98.50
32811;DHT22;65470;47.324;8.548;2023-04-15T14:41:27;13.40;98.90
32811;DHT22;65470;47.324;8.548;2023-04-15T14:43:52;13.30;99.00
32811;DHT22;65470;47.324;8.548;2023-04-15T14:46:18;13.20;99.90
32811;DHT22;65470;47.324;8.548;2023-04-15T14:48:43;13.10;99.90
32811;DHT22;65470;47.324;8.548;2023-04-15T14:51:09;12.90;99.90
32811;DHT22;65470;47.324;8.548;2023-04-15T14:53:35;12.80;99.90
32811;DHT22;65470;47.324;8.548;2023-04-15T14:56:00;12.70;99.90
32811;DHT22;65470;47.324;8.548;2023-04-15T14:58:26;12.50;99.90
32811;DHT22;65470;47.324;8.548;2023-04-15T15:00:51;12.50;99.90
32811;DHT22;65470;47.324;8.548;2023-04-15T15:03:17;12.40;99.90
32811;DHT22;65470;47.324;8.548;2023-04-15T15:05:44;12.30;99.90
32811;DHT22;65470;47.324;8.548;2023-04-15T15:08:11;12.30;99.90
32811;DHT22;65470;47.324;8.548;2023-04-15T15:10:38;12.30;99.90
32811;DHT22;65470;47.324;8.548;2023-04-15T15:13:07;12.30;99.90
32811;DHT22;65470;47.324;8.548;2023-04-15T15:15:34;12.40;99.90
32811;DHT22;65470;47.324;8.548;2023-04-15T15:18:00;12.40;99.90
32811;DHT22;65470;47.324;8.548;2023-04-15T15:20:26;12.40;99.90
32811;DHT22;65470;47.324;8.548;2023-04-15T15:22:52;12.50;99.90
32811;DHT22;65470;47.324;8.548;2023-04-15T15:25:18;12.50;99.90
32811;DHT22;65470;47.324;8.548;2023-04-15T15:27:43;12.50;99.90
32811;DHT22;65470;47.324;8.548;2023-04-15T15:30:10;12.60;99.90
32811;DHT22;65470;47.324;8.548;2023-04-15T15:32:40;12.60;99.90
32811;DHT22;65470;47.324;8.548;2023-04-15T15:35:07;12.50;99.90
32811;DHT22;65470;47.324;8.548;2023-04-15T15:37:33;12.50;99.90
32811;DHT22;65470;47.324;8.548;2023-04-15T15:39:59;12.40;99.90
32811;DHT22;65470;47.324;8.548;2023-04-15T15:42:25;12.40;99.90
32811;DHT22;65470;47.324;8.548;2023-04-15T15:44:51;12.40;99.90
32811;DHT22;65470;47.324;8.548;2023-04-15T15:47:20;12.30;99.90
32811;DHT22;65470;47.324;8.548;2023-04-15T15:49:46;12.40;99.90